createdAt,value
2022-08-18T00:03:54.171Z,0
2022-08-18T00:08:39.032Z,0
2022-08-18T00:13:39.055Z,0
2022-08-18T00:18:40.800Z,0
2022-08-18T00:23:39.063Z,0
2022-08-18T00:28:39.062Z,0
2022-08-18T00:33:39.616Z,0
2022-08-18T00:38:39.054Z,0
2022-08-18T00:43:39.250Z,0
2022-08-18T00:48:40.035Z,0
2022-08-18T00:53:39.019Z,0
2022-08-18T00:58:39.064Z,0
2022-08-18T01:03:39.027Z,0
2022-08-18T01:08:42.237Z,0
2022-08-18T01:13:39.000Z,0
2022-08-18T01:18:39.031Z,0
2022-08-18T01:23:39.066Z,0
2022-08-18T01:28:39.086Z,0
2022-08-18T01:33:39.082Z,0
2022-08-18T01:38:39.022Z,0
2022-08-18T01:43:39.006Z,0
2022-08-18T01:48:40.751Z,0
2022-08-18T01:53:40.309Z,0
2022-08-18T01:58:39.030Z,0
2022-08-18T02:03:39.066Z,0
2022-08-18T02:08:43.574Z,0
2022-08-18T02:13:39.013Z,0
2022-08-18T02:18:48.075Z,0
2022-08-18T02:23:39.545Z,0
2022-08-18T02:28:39.045Z,0
2022-08-18T02:33:39.078Z,0
2022-08-18T02:38:42.560Z,0
2022-08-18T02:43:39.153Z,0
2022-08-18T02:48:39.067Z,0
2022-08-18T02:53:39.108Z,0
2022-08-18T02:58:39.054Z,0
2022-08-18T03:03:39.130Z,0
2022-08-18T03:08:39.073Z,0
2022-08-18T03:13:39.154Z,0
2022-08-18T03:18:39.542Z,0
2022-08-18T03:23:39.102Z,0
2022-08-18T03:28:39.136Z,0
2022-08-18T03:33:39.156Z,0
2022-08-18T03:38:39.048Z,0
2022-08-18T03:43:50.560Z,0
2022-08-18T03:48:39.082Z,0
2022-08-18T03:53:39.094Z,0
2022-08-18T03:58:39.138Z,0
2022-08-18T04:03:39.142Z,0
2022-08-18T04:08:39.061Z,0
2022-08-18T04:19:06.506Z,0
2022-08-18T04:23:43.944Z,0
2022-08-18T04:28:40.086Z,0
2022-08-18T04:33:40.114Z,266
2022-08-18T04:38:40.077Z,266
2022-08-18T04:43:40.073Z,269
2022-08-18T04:48:40.115Z,272
2022-08-18T04:53:40.667Z,272
2022-08-18T04:58:40.228Z,276
2022-08-18T05:03:43.137Z,277
2022-08-18T05:08:43.169Z,279
2022-08-18T05:13:43.181Z,280
2022-08-18T05:18:43.062Z,281
2022-08-18T05:23:40.111Z,287
2022-08-18T05:28:40.123Z,286
2022-08-18T05:33:40.487Z,284
2022-08-18T05:38:40.112Z,282
2022-08-18T05:43:51.069Z,278
2022-08-18T05:48:44.689Z,280
2022-08-18T05:53:43.139Z,282
2022-08-18T05:58:40.148Z,286
2022-08-18T06:03:44.920Z,287
2022-08-18T06:08:40.263Z,290
2022-08-18T06:13:41.128Z,290
2022-08-18T06:18:40.203Z,293
2022-08-18T06:23:40.148Z,296
2022-08-18T06:28:40.123Z,297
2022-08-18T06:33:40.202Z,300
2022-08-18T06:38:40.152Z,303
2022-08-18T06:43:40.173Z,321
2022-08-18T06:48:40.174Z,317
2022-08-18T06:53:40.142Z,307
2022-08-18T06:58:40.204Z,324
2022-08-18T07:03:40.143Z,319
2022-08-18T07:08:40.219Z,332
2022-08-18T07:13:43.228Z,339
2022-08-18T07:18:40.243Z,320
2022-08-18T07:23:40.180Z,338
2022-08-18T07:28:40.154Z,341
2022-08-18T07:33:40.172Z,345
2022-08-18T07:38:43.970Z,376
2022-08-18T07:43:40.394Z,379
2022-08-18T07:48:41.160Z,374
2022-08-18T07:53:40.139Z,376
2022-08-18T07:58:40.249Z,394
2022-08-18T08:03:40.252Z,402
2022-08-18T08:08:40.197Z,393
2022-08-18T08:13:55.015Z,363
2022-08-18T08:18:40.189Z,357
2022-08-18T08:23:45.131Z,338
2022-08-18T08:28:40.187Z,344
2022-08-18T08:33:40.168Z,361
2022-08-18T08:38:44.571Z,404
2022-08-18T08:43:40.165Z,376
2022-08-18T08:48:40.224Z,389
2022-08-18T08:53:40.521Z,404
2022-08-18T08:58:40.182Z,359
2022-08-18T09:03:40.206Z,380
2022-08-18T09:08:40.248Z,363
2022-08-18T09:13:40.839Z,395
2022-08-18T09:18:40.214Z,361
2022-08-18T09:23:40.173Z,396
2022-08-18T09:28:40.233Z,462
2022-08-18T09:33:40.208Z,1231
2022-08-18T09:38:43.264Z,1070
2022-08-18T09:43:40.229Z,1397
2022-08-18T09:48:43.790Z,1784
2022-08-18T09:53:40.235Z,1709
2022-08-18T09:58:41.292Z,2012
2022-08-18T10:03:43.281Z,1327
2022-08-18T10:08:43.523Z,486
2022-08-18T10:13:48.471Z,894
2022-08-18T10:18:40.209Z,1250
2022-08-18T10:23:48.104Z,775
2022-08-18T10:28:40.257Z,430
2022-08-18T10:33:40.245Z,451
2022-08-18T10:38:40.239Z,414
2022-08-18T10:43:46.369Z,368
2022-08-18T10:48:41.280Z,389
2022-08-18T10:58:40.322Z,439
2022-08-18T11:08:40.285Z,446
2022-08-18T11:13:40.273Z,559
2022-08-18T11:18:43.745Z,1054
2022-08-18T11:23:40.746Z,459
2022-08-18T11:28:44.817Z,389
2022-08-18T11:33:41.227Z,433
2022-08-18T11:38:43.272Z,401
2022-08-18T11:43:46.696Z,372
2022-08-18T11:48:52.003Z,349
2022-08-18T11:53:44.139Z,326
2022-08-18T11:58:43.331Z,353
2022-08-18T12:03:40.323Z,367
2022-08-18T12:08:56.796Z,363
2022-08-18T12:13:40.246Z,391
2022-08-18T12:18:43.352Z,417
2022-08-18T12:23:44.836Z,392
2022-08-18T12:28:40.303Z,358
2022-08-18T12:33:48.029Z,357
2022-08-18T12:38:43.278Z,350
2022-08-18T12:43:43.265Z,356
2022-08-18T12:48:41.264Z,345
2022-08-18T12:53:58.644Z,332
2022-08-18T12:58:43.490Z,329
2022-08-18T13:03:43.291Z,330
2022-08-18T13:08:47.936Z,331
2022-08-18T13:18:43.343Z,319
2022-08-18T13:23:40.292Z,312
2022-08-18T13:28:49.811Z,313
2022-08-18T13:33:56.444Z,321
2022-08-18T13:38:40.577Z,324
2022-08-18T13:43:40.305Z,322
2022-08-18T13:48:43.317Z,318
2022-08-18T13:53:51.384Z,321
2022-08-18T13:58:53.128Z,320
2022-08-18T14:03:47.113Z,344
2022-08-18T14:08:41.361Z,329
2022-08-18T14:13:43.470Z,327
2022-08-18T14:18:40.282Z,316
2022-08-18T14:23:51.563Z,315
2022-08-18T14:28:43.338Z,320
2022-08-18T14:33:50.221Z,329
2022-08-18T14:38:40.355Z,325
2022-08-18T14:44:04.041Z,323
2022-08-18T14:48:43.293Z,324
2022-08-18T14:53:43.343Z,326
2022-08-18T14:58:40.358Z,328
2022-08-18T15:03:40.288Z,324
2022-08-18T15:08:45.345Z,320
2022-08-18T15:13:40.275Z,319
2022-08-18T15:18:43.494Z,322
2022-08-18T15:23:43.326Z,320
2022-08-18T15:28:41.368Z,322
2022-08-18T15:33:40.380Z,322
2022-08-18T15:38:40.328Z,318
2022-08-18T15:43:46.134Z,317
2022-08-18T15:48:40.347Z,316
2022-08-18T15:53:44.702Z,315
2022-08-18T15:58:40.306Z,312
2022-08-18T16:03:41.358Z,309
2022-08-18T16:08:40.409Z,307
2022-08-18T16:13:40.338Z,304
2022-08-18T16:18:40.450Z,299
2022-08-18T16:23:40.373Z,298
2022-08-18T16:28:40.335Z,295
2022-08-18T16:33:40.357Z,288
2022-08-18T16:38:40.857Z,287
2022-08-18T16:43:40.340Z,284
2022-08-18T16:48:40.347Z,281
2022-08-18T16:53:41.381Z,281
2022-08-18T16:58:40.368Z,275
2022-08-18T17:03:40.377Z,278
2022-08-18T17:08:40.424Z,275
2022-08-18T17:13:40.378Z,274
2022-08-18T17:18:40.934Z,271
2022-08-18T17:23:40.388Z,271
2022-08-18T17:28:46.130Z,270
2022-08-18T17:33:40.425Z,267
2022-08-18T17:38:40.446Z,266
2022-08-18T17:48:40.378Z,266
2022-08-18T17:53:40.385Z,0
2022-08-18T17:58:40.455Z,0
2022-08-18T18:03:41.439Z,0
2022-08-18T18:08:40.404Z,0
2022-08-18T18:13:40.445Z,0
2022-08-18T18:18:40.533Z,0
2022-08-18T18:23:40.388Z,0
2022-08-18T18:28:40.415Z,0
2022-08-18T18:33:40.417Z,0
2022-08-18T18:38:40.390Z,0
2022-08-18T18:43:40.491Z,0
2022-08-18T18:48:43.635Z,0
2022-08-18T18:53:40.423Z,0
2022-08-18T18:58:40.450Z,0
2022-08-18T19:03:40.422Z,0
2022-08-18T19:08:40.382Z,0
2022-08-18T19:13:40.487Z,0
2022-08-18T19:18:40.436Z,0
2022-08-18T19:23:44.687Z,0
2022-08-18T19:29:04.327Z,0
2022-08-18T19:33:43.526Z,0
2022-08-18T19:38:40.437Z,0
2022-08-18T19:43:40.493Z,0
2022-08-18T19:48:40.421Z,0
2022-08-18T19:53:40.453Z,0
2022-08-18T19:58:58.760Z,0
2022-08-18T20:03:43.499Z,0
2022-08-18T20:08:40.447Z,0
2022-08-18T20:13:43.613Z,0
2022-08-18T20:18:40.414Z,0
2022-08-18T20:23:40.449Z,0
2022-08-18T20:28:40.566Z,0
2022-08-18T20:33:40.510Z,0
2022-08-18T20:38:40.434Z,0
2022-08-18T20:48:40.592Z,0
2022-08-18T20:53:40.477Z,0
2022-08-18T20:58:41.309Z,0
2022-08-18T21:03:40.502Z,0
2022-08-18T21:08:40.479Z,0
2022-08-18T21:13:40.477Z,0
2022-08-18T21:18:40.451Z,0
2022-08-18T21:23:40.945Z,0
2022-08-18T21:28:40.514Z,0
2022-08-18T21:33:40.951Z,0
2022-08-18T21:38:40.479Z,0
2022-08-18T21:43:40.500Z,0
2022-08-18T21:48:40.578Z,0
2022-08-18T21:53:40.809Z,0
2022-08-18T21:58:40.462Z,0
2022-08-18T22:03:40.472Z,0
2022-08-18T22:08:40.530Z,0
2022-08-18T22:13:40.547Z,0
2022-08-18T22:18:41.632Z,0
2022-08-18T22:23:43.502Z,0
2022-08-18T22:28:41.007Z,0
2022-08-18T22:33:42.678Z,0
2022-08-18T22:38:40.460Z,0
2022-08-18T22:43:40.507Z,0
2022-08-18T22:48:40.524Z,0
2022-08-18T22:53:43.525Z,0
2022-08-18T22:58:43.579Z,0
2022-08-18T23:03:43.551Z,0
2022-08-18T23:08:54.499Z,0
2022-08-18T23:13:40.518Z,0
2022-08-18T23:18:40.607Z,0
2022-08-18T23:23:42.016Z,0
2022-08-18T23:28:40.519Z,0
2022-08-18T23:33:40.575Z,0
2022-08-18T23:38:40.514Z,0
2022-08-18T23:43:40.550Z,0
2022-08-18T23:48:40.590Z,0
2022-08-18T23:53:40.555Z,0
2022-08-18T23:58:40.520Z,0
